Spencer, Oklahoma
Current Conditions -  °F | °C
As of 7:01 AM on Sunday 23 Nov 2014 (Local Time) from KTIK Reporting Station
Overcast Overcast  
Wind Chill: 55°   Ceiling: 700
Heat Index: 55°   Visibility: 10mi
Dew Point: 54°   Wind: 15mph
Humidity: 94%   Direction: 160°SSE
Pressure: 29.52"   Gusts: NA
Location:  35.52°N, 97.38°W
Report Text: KTIK 231301Z AUTO 16013KT 10SM OVC007 13/12 A2952 RMK AO2
Loading
Personal Weather Stations






























Interactive Weather Map New forecast layout! Learn more

10-Day Weather Forecast

Advertisements
Track Severe Weather on mobile